Terminal Aerodrome Forecast
Issued by NWS

Home | Current Version | Previous Version | Text Only | Print | Product List | Glossary On
Versions: 1 2 3 4 5 6 7 8 9 10 11 12 13
000
FTUS46 KHNX 202320
TAFVIS
TAF
KVIS 202320Z 2100/2124 30005KT P6SM FEW250
     FM210300 32012G19KT P6SM BKN050
     FM210900 31007KT P6SM SCT050=

USA.gov is the U.S. government's official web portal to all federal, state and local government web resources and services.